Terminal Aerodrome Forecast
Issued by NWS Cleveland, OH

Home | Current Version | Previous Version | Graphics & Text | Print | Product List | Glossary On
Versions: 1 2 3 4 5 6 7 8 9 10 11 12 13 14 15 16 17 18 19
428
FTUS41 KCLE 052051 AAA
TAFERI
TAF AMD
KERI 052051Z 0521/0618 27011KT P6SM OVC035
      TEMPO 0521/0524 BKN030
     FM060000 24005KT P6SM OVC040
     FM060800 12007KT P6SM SCT060 OVC120
     FM061200 12014G20KT P6SM SCT035 OVC060
     FM061600 12015G25KT P6SM OVC035=

USA.gov is the U.S. government's official web portal to all federal, state and local government web resources and services.